AFR672 LFPG-FMEE
Flight info
| Callsign | AFR672 |
|---|---|
| Flight time | N/A |
| Altitude | 31000 |
| Route | BUBLI DCT LUVAL DCT SHARA DCT DEVDI DCT ODINA DCT GOXIN DCT LIKNO DCT NAVAG DCT DINOB DCT SALUN/N0490F330 N705 BOPIX N710 TAKRI P751 LXR M999 JDW M559 RIBAM G650 RASKA/N0500F340 G650 ULONI UG650 ASM/N0504F330 UR780 SETIT DCT XADOX DCT DWA UN304 EPTOV/N0498F350 UN304 APKAK/N0503F340 UN304 ALRUS/N0497F350 DCT IXEBU DCT UVENA UVENA2S |
| Aircraft | B77W/H-SDE1E2E3FGHIJ2J3J4J5M1RWXY/LB1D1 |
Departure
| Time | N/A |
|---|---|
| Airport | Charles de Gaulle International Airport (LFPG) |
Arrival
| Time | 2026-04-16 04:27 |
|---|---|
| Airport | Roland Garros Airport (FMEE) |
| Time | Latitude | Longitude | Altitude | Speed | Heading |
|---|---|---|---|---|---|
| 2026-04-15 21:54 | 28.46968 | 29.94132 | 32557 ft | 531 kts | 152° |
| 2026-04-15 21:54 | 28.43957 | 29.96435 | 32135 ft | 531 kts | 153° |
| 2026-04-15 21:54 | 28.40895 | 29.98691 | 31978 ft | 529 kts | 153° |
| 2026-04-15 21:54 | 28.37799 | 30.00966 | 32150 ft | 530 kts | 153° |
| 2026-04-15 21:55 | 28.34715 | 30.03260 | 32497 ft | 528 kts | 153° |
| 2026-04-15 21:55 | 28.31660 | 30.05568 | 32760 ft | 528 kts | 153° |
| 2026-04-15 21:55 | 28.28599 | 30.07905 | 32775 ft | 528 kts | 152° |
| 2026-04-15 21:56 | 28.22570 | 30.12551 | 32784 ft | 525 kts | 152° |
| 2026-04-15 21:56 | 28.16532 | 30.17207 | 32797 ft | 523 kts | 152° |
| 2026-04-15 21:57 | 28.10449 | 30.21873 | 32817 ft | 531 kts | 152° |
| 2026-04-15 21:57 | 28.04317 | 30.26565 | 32814 ft | 537 kts | 152° |
| 2026-04-15 21:58 | 27.98089 | 30.31330 | 32806 ft | 542 kts | 152° |
| 2026-04-15 21:58 | 27.91818 | 30.36125 | 32798 ft | 543 kts | 152° |
| 2026-04-15 21:59 | 27.85581 | 30.40886 | 32777 ft | 544 kts | 152° |
| 2026-04-15 21:59 | 27.79335 | 30.45635 | 32783 ft | 543 kts | 152° |
| 2026-04-15 22:00 | 27.73045 | 30.50390 | 32806 ft | 543 kts | 152° |
| 2026-04-15 22:00 | 27.66816 | 30.55113 | 32802 ft | 543 kts | 152° |
| 2026-04-15 22:01 | 27.60543 | 30.59877 | 32807 ft | 543 kts | 152° |
| 2026-04-15 22:01 | 27.54278 | 30.64630 | 32784 ft | 543 kts | 152° |
| 2026-04-15 22:02 | 27.47993 | 30.69391 | 32796 ft | 544 kts | 152° |
| 2026-04-15 22:02 | 27.41707 | 30.74144 | 32805 ft | 544 kts | 152° |
| 2026-04-15 22:03 | 27.35412 | 30.78898 | 32802 ft | 544 kts | 152° |
| 2026-04-15 22:03 | 27.29159 | 30.83613 | 32805 ft | 545 kts | 152° |
| 2026-04-15 22:04 | 27.22839 | 30.88373 | 32787 ft | 545 kts | 152° |
| 2026-04-15 22:04 | 27.16533 | 30.93117 | 32804 ft | 545 kts | 152° |
| 2026-04-15 22:04 | 27.13418 | 30.95458 | 32911 ft | 545 kts | 152° |
| 2026-04-15 22:05 | 27.10255 | 30.97833 | 32902 ft | 546 kts | 152° |
| 2026-04-15 22:05 | 27.04081 | 31.02879 | 32906 ft | 552 kts | 144° |
| 2026-04-15 22:06 | 26.98682 | 31.09033 | 32911 ft | 560 kts | 133° |
| 2026-04-15 22:06 | 26.93791 | 31.15891 | 32886 ft | 561 kts | 133° |
| 2026-04-15 22:07 | 26.88934 | 31.22696 | 32853 ft | 561 kts | 133° |
| 2026-04-15 22:07 | 26.84001 | 31.29510 | 32827 ft | 561 kts | 133° |
| 2026-04-15 22:08 | 26.79082 | 31.36253 | 32810 ft | 561 kts | 133° |
| 2026-04-15 22:08 | 26.74128 | 31.43032 | 32811 ft | 561 kts | 133° |
| 2026-04-15 22:09 | 26.69208 | 31.49760 | 32811 ft | 561 kts | 133° |
| 2026-04-15 22:09 | 26.64284 | 31.56488 | 32809 ft | 560 kts | 133° |
| 2026-04-15 22:10 | 26.59341 | 31.63232 | 32811 ft | 560 kts | 133° |
| 2026-04-15 22:10 | 26.54385 | 31.69982 | 32815 ft | 560 kts | 133° |
| 2026-04-15 22:11 | 26.49470 | 31.76666 | 32795 ft | 560 kts | 134° |
| 2026-04-15 22:11 | 26.44516 | 31.83394 | 32806 ft | 560 kts | 134° |
| 2026-04-15 22:12 | 26.39566 | 31.90106 | 32806 ft | 560 kts | 134° |
| 2026-04-15 22:12 | 26.34625 | 31.96795 | 32806 ft | 560 kts | 134° |
| 2026-04-15 22:13 | 26.29652 | 32.03520 | 32801 ft | 560 kts | 134° |
| 2026-04-15 22:13 | 26.24684 | 32.10225 | 32802 ft | 560 kts | 134° |
| 2026-04-15 22:14 | 26.19749 | 32.16879 | 32803 ft | 560 kts | 134° |
| 2026-04-15 22:14 | 26.14771 | 32.23578 | 32801 ft | 560 kts | 134° |
| 2026-04-15 22:15 | 26.09822 | 32.30231 | 32792 ft | 560 kts | 134° |
| 2026-04-15 22:15 | 26.04846 | 32.36907 | 32789 ft | 559 kts | 134° |
| 2026-04-15 22:16 | 25.99869 | 32.43578 | 32800 ft | 559 kts | 134° |
| 2026-04-15 22:16 | 25.94925 | 32.50194 | 32796 ft | 560 kts | 134° |
| 2026-04-15 22:17 | 25.89947 | 32.56846 | 32799 ft | 560 kts | 134° |
| 2026-04-15 22:17 | 25.84992 | 32.63457 | 32812 ft | 559 kts | 134° |
| 2026-04-15 22:18 | 25.80005 | 32.70106 | 32795 ft | 559 kts | 134° |
| 2026-04-15 22:18 | 25.75027 | 32.76773 | 32796 ft | 560 kts | 132° |
| 2026-04-15 22:19 | 25.70626 | 32.83868 | 32796 ft | 563 kts | 126° |
| 2026-04-15 22:19 | 25.66354 | 32.91175 | 32785 ft | 563 kts | 127° |
| 2026-04-15 22:20 | 25.62051 | 32.98453 | 32803 ft | 563 kts | 127° |
| 2026-04-15 22:20 | 25.57743 | 33.05662 | 32800 ft | 563 kts | 127° |
| 2026-04-15 22:21 | 25.53406 | 33.12888 | 32798 ft | 563 kts | 127° |
| 2026-04-15 22:21 | 25.49069 | 33.20113 | 32803 ft | 563 kts | 128° |
| 2026-04-15 22:22 | 25.44747 | 33.27309 | 32800 ft | 563 kts | 128° |
| 2026-04-15 22:22 | 25.40399 | 33.34538 | 32797 ft | 563 kts | 128° |
| 2026-04-15 22:23 | 25.36057 | 33.41744 | 32804 ft | 563 kts | 128° |
| 2026-04-15 22:23 | 25.31729 | 33.48919 | 32808 ft | 563 kts | 128° |
| 2026-04-15 22:24 | 25.27364 | 33.56132 | 32779 ft | 563 kts | 128° |
| 2026-04-15 22:24 | 25.23017 | 33.63301 | 32805 ft | 563 kts | 128° |
| 2026-04-15 22:25 | 25.18640 | 33.70511 | 32791 ft | 564 kts | 129° |
| 2026-04-15 22:25 | 25.14276 | 33.77690 | 32806 ft | 565 kts | 129° |
| 2026-04-15 22:26 | 25.09884 | 33.84908 | 32817 ft | 567 kts | 129° |
| 2026-04-15 22:26 | 25.05469 | 33.92152 | 32820 ft | 568 kts | 129° |
| 2026-04-15 22:27 | 25.01064 | 33.99368 | 32807 ft | 569 kts | 129° |
| 2026-04-15 22:27 | 24.96625 | 34.06629 | 32827 ft | 570 kts | 129° |
| 2026-04-15 22:28 | 24.92185 | 34.13879 | 32820 ft | 571 kts | 129° |
| 2026-04-15 22:28 | 24.87755 | 34.21105 | 32823 ft | 571 kts | 129° |
| 2026-04-15 22:29 | 24.83298 | 34.28363 | 32818 ft | 571 kts | 129° |
| 2026-04-15 22:29 | 24.78826 | 34.35634 | 32831 ft | 572 kts | 129° |
| 2026-04-15 22:30 | 24.74375 | 34.42859 | 32834 ft | 573 kts | 129° |
| 2026-04-15 22:30 | 24.69892 | 34.50124 | 32806 ft | 574 kts | 129° |
| 2026-04-15 22:31 | 24.65421 | 34.57361 | 32829 ft | 575 kts | 129° |
| 2026-04-15 22:31 | 24.60911 | 34.64648 | 32836 ft | 576 kts | 130° |
| 2026-04-15 22:32 | 24.56385 | 34.71954 | 32803 ft | 577 kts | 130° |
| 2026-04-15 22:32 | 24.51892 | 34.79194 | 32825 ft | 577 kts | 129° |
| 2026-04-15 22:33 | 24.47389 | 34.86440 | 32817 ft | 577 kts | 129° |
| 2026-04-15 22:33 | 24.42876 | 34.93693 | 32810 ft | 576 kts | 129° |
| 2026-04-15 22:34 | 24.39113 | 34.99730 | 32811 ft | 575 kts | 129° |
| 2026-04-15 22:34 | 24.34576 | 35.06996 | 32813 ft | 574 kts | 129° |
| 2026-04-15 22:35 | 24.30087 | 35.14178 | 32811 ft | 574 kts | 129° |
| 2026-04-15 22:35 | 24.25566 | 35.21400 | 32819 ft | 574 kts | 129° |
| 2026-04-15 22:36 | 24.21033 | 35.28630 | 32806 ft | 575 kts | 129° |
| 2026-04-15 22:36 | 24.16523 | 35.35814 | 32804 ft | 575 kts | 130° |
| 2026-04-15 22:37 | 24.11976 | 35.43047 | 32809 ft | 576 kts | 130° |
| 2026-04-15 22:37 | 24.07446 | 35.50243 | 32793 ft | 576 kts | 130° |
| 2026-04-15 22:38 | 24.02888 | 35.57472 | 32793 ft | 576 kts | 129° |
| 2026-04-15 22:38 | 23.98323 | 35.64704 | 32796 ft | 577 kts | 129° |
| 2026-04-15 22:39 | 23.93777 | 35.71893 | 32799 ft | 577 kts | 129° |
| 2026-04-15 22:39 | 23.89192 | 35.79131 | 32787 ft | 577 kts | 129° |
| 2026-04-15 22:40 | 23.84645 | 35.86304 | 32796 ft | 577 kts | 129° |
| 2026-04-15 22:40 | 23.80052 | 35.93540 | 32795 ft | 577 kts | 129° |
| 2026-04-15 22:41 | 23.73215 | 36.04292 | 32793 ft | 577 kts | 129° |
| 2026-04-15 22:41 | 23.68649 | 36.11460 | 32791 ft | 577 kts | 129° |
| 2026-04-15 22:42 | 23.64057 | 36.18659 | 32795 ft | 577 kts | 129° |
| 2026-04-15 22:42 | 23.59461 | 36.25852 | 32815 ft | 576 kts | 129° |
| 2026-04-15 22:43 | 23.54886 | 36.33004 | 32796 ft | 577 kts | 129° |
| 2026-04-15 22:43 | 23.50288 | 36.40180 | 32791 ft | 576 kts | 129° |
| 2026-04-15 22:44 | 23.45711 | 36.47314 | 32781 ft | 576 kts | 129° |
| 2026-04-15 22:44 | 23.41104 | 36.54486 | 32786 ft | 576 kts | 129° |
| 2026-04-15 22:45 | 23.36531 | 36.61594 | 32794 ft | 576 kts | 129° |
| 2026-04-15 22:45 | 23.31920 | 36.68751 | 32791 ft | 576 kts | 129° |
| 2026-04-15 22:46 | 23.27327 | 36.75871 | 32783 ft | 576 kts | 129° |
| 2026-04-15 22:46 | 23.22712 | 36.83015 | 32790 ft | 577 kts | 129° |
| 2026-04-15 22:47 | 23.18122 | 36.90109 | 32792 ft | 577 kts | 129° |
| 2026-04-15 22:47 | 23.13482 | 36.97274 | 32789 ft | 577 kts | 129° |
| 2026-04-15 22:48 | 23.08881 | 37.04366 | 32783 ft | 578 kts | 129° |
| 2026-04-15 22:48 | 23.04243 | 37.11509 | 32791 ft | 578 kts | 129° |
| 2026-04-15 22:49 | 22.99610 | 37.18617 | 32776 ft | 578 kts | 129° |
| 2026-04-15 22:49 | 22.94922 | 37.25749 | 32776 ft | 578 kts | 129° |
| 2026-04-15 22:50 | 22.90265 | 37.32824 | 32784 ft | 579 kts | 129° |
| 2026-04-15 22:50 | 22.85581 | 37.39941 | 32783 ft | 579 kts | 129° |
| 2026-04-15 22:51 | 22.80884 | 37.47072 | 32784 ft | 579 kts | 129° |
| 2026-04-15 22:51 | 22.76224 | 37.54136 | 32778 ft | 577 kts | 130° |
| 2026-04-15 22:52 | 22.73651 | 37.57433 | 32765 ft | 569 kts | 142° |
| 2026-04-15 22:52 | 22.70586 | 37.60075 | 32786 ft | 558 kts | 153° |
| 2026-04-15 22:52 | 22.63686 | 37.63560 | 32776 ft | 537 kts | 172° |
| 2026-04-15 22:53 | 22.56514 | 37.65683 | 32786 ft | 538 kts | 172° |
| 2026-04-15 22:53 | 22.49268 | 37.67888 | 32785 ft | 540 kts | 171° |
| 2026-04-15 22:54 | 22.42068 | 37.70148 | 32788 ft | 542 kts | 171° |
| 2026-04-15 22:54 | 22.34811 | 37.72447 | 32767 ft | 543 kts | 171° |
| 2026-04-15 22:55 | 22.27597 | 37.74728 | 32785 ft | 543 kts | 171° |
| 2026-04-15 22:55 | 22.20339 | 37.77015 | 32786 ft | 543 kts | 171° |
| 2026-04-15 22:56 | 22.13076 | 37.79299 | 32789 ft | 543 kts | 171° |
| 2026-04-15 22:56 | 22.05802 | 37.81583 | 32770 ft | 543 kts | 170° |
| 2026-04-15 22:57 | 21.98566 | 37.83854 | 32799 ft | 542 kts | 170° |
| 2026-04-15 22:57 | 21.91312 | 37.86128 | 32795 ft | 542 kts | 170° |
| 2026-04-15 22:58 | 21.84081 | 37.88392 | 32794 ft | 542 kts | 170° |
| 2026-04-15 22:58 | 21.76822 | 37.90662 | 32778 ft | 542 kts | 170° |
| 2026-04-15 22:59 | 21.69566 | 37.92929 | 32799 ft | 542 kts | 170° |
| 2026-04-15 22:59 | 21.62359 | 37.95179 | 32799 ft | 543 kts | 170° |
| 2026-04-15 23:00 | 21.55074 | 37.97450 | 32796 ft | 544 kts | 170° |
| 2026-04-15 23:00 | 21.47796 | 37.99717 | 32785 ft | 544 kts | 170° |
| 2026-04-15 23:01 | 21.40555 | 38.01970 | 32796 ft | 545 kts | 170° |
| 2026-04-15 23:01 | 21.33242 | 38.04243 | 32794 ft | 545 kts | 170° |
| 2026-04-15 23:02 | 21.25976 | 38.06500 | 32796 ft | 546 kts | 170° |
| 2026-04-15 23:02 | 21.18671 | 38.08766 | 32778 ft | 546 kts | 170° |
| 2026-04-15 23:03 | 21.11402 | 38.11019 | 32787 ft | 546 kts | 170° |
| 2026-04-15 23:03 | 21.04077 | 38.13286 | 32790 ft | 547 kts | 170° |
| 2026-04-15 23:04 | 20.96747 | 38.15553 | 32788 ft | 547 kts | 170° |
| 2026-04-15 23:04 | 20.89444 | 38.17809 | 32783 ft | 547 kts | 169° |
| 2026-04-15 23:05 | 20.82117 | 38.20070 | 32792 ft | 548 kts | 169° |
| 2026-04-15 23:05 | 20.74834 | 38.22316 | 32785 ft | 548 kts | 169° |
| 2026-04-15 23:06 | 20.67486 | 38.24579 | 32782 ft | 547 kts | 169° |
| 2026-04-15 23:06 | 20.60196 | 38.26822 | 32773 ft | 548 kts | 169° |
| 2026-04-15 23:07 | 20.52854 | 38.29079 | 32776 ft | 548 kts | 169° |
| 2026-04-15 23:07 | 20.45547 | 38.31322 | 32777 ft | 548 kts | 169° |
| 2026-04-15 23:08 | 20.38179 | 38.33582 | 32776 ft | 549 kts | 169° |
| 2026-04-15 23:08 | 20.30864 | 38.35824 | 32761 ft | 550 kts | 169° |
| 2026-04-15 23:09 | 20.23481 | 38.38084 | 32777 ft | 551 kts | 169° |
| 2026-04-15 23:09 | 20.16094 | 38.40344 | 32777 ft | 552 kts | 169° |
| 2026-04-15 23:10 | 20.08746 | 38.42589 | 32772 ft | 553 kts | 169° |
| 2026-04-15 23:10 | 20.01315 | 38.44857 | 32768 ft | 553 kts | 169° |
| 2026-04-15 23:11 | 19.93949 | 38.47104 | 32767 ft | 554 kts | 169° |
| 2026-04-15 23:11 | 19.86519 | 38.49368 | 32770 ft | 554 kts | 169° |
| 2026-04-15 23:12 | 19.79130 | 38.51617 | 32767 ft | 554 kts | 169° |
| 2026-04-15 23:12 | 19.71740 | 38.53864 | 32768 ft | 554 kts | 169° |
| 2026-04-15 23:13 | 19.64335 | 38.56114 | 32767 ft | 553 kts | 169° |
| 2026-04-15 23:13 | 19.56923 | 38.58363 | 32765 ft | 553 kts | 169° |
| 2026-04-15 23:14 | 19.49514 | 38.60610 | 32742 ft | 553 kts | 169° |
| 2026-04-15 23:14 | 19.42138 | 38.62844 | 32770 ft | 553 kts | 169° |
| 2026-04-15 23:15 | 19.34753 | 38.65078 | 32762 ft | 554 kts | 169° |
| 2026-04-15 23:15 | 19.27309 | 38.67329 | 32757 ft | 555 kts | 169° |
| 2026-04-15 23:16 | 19.19875 | 38.69574 | 32748 ft | 555 kts | 169° |
| 2026-04-15 23:16 | 19.12477 | 38.71807 | 32761 ft | 555 kts | 169° |
| 2026-04-15 23:17 | 19.05050 | 38.74046 | 32756 ft | 556 kts | 169° |
| 2026-04-15 23:17 | 18.97594 | 38.76292 | 32755 ft | 556 kts | 169° |
| 2026-04-15 23:18 | 18.90135 | 38.78537 | 32745 ft | 557 kts | 169° |
| 2026-04-15 23:18 | 18.82705 | 38.80771 | 32755 ft | 557 kts | 169° |
| 2026-04-15 23:19 | 18.75231 | 38.83016 | 32753 ft | 557 kts | 169° |
| 2026-04-15 23:19 | 18.67819 | 38.85240 | 32753 ft | 557 kts | 169° |
| 2026-04-15 23:20 | 18.61599 | 38.87105 | 32742 ft | 557 kts | 169° |
| 2026-04-15 23:20 | 18.52926 | 38.89704 | 32749 ft | 557 kts | 169° |
| 2026-04-15 23:21 | 18.46721 | 38.91561 | 32752 ft | 557 kts | 169° |
| 2026-04-15 23:21 | 18.39238 | 38.93799 | 32751 ft | 557 kts | 169° |
| 2026-04-15 23:22 | 18.31782 | 38.96028 | 32746 ft | 557 kts | 169° |
| 2026-04-15 23:22 | 18.24353 | 38.98246 | 32752 ft | 557 kts | 169° |
| 2026-04-15 23:23 | 18.16797 | 38.99970 | 32746 ft | 550 kts | 178° |
| 2026-04-15 23:23 | 18.09213 | 39.00352 | 32750 ft | 541 kts | 188° |
| 2026-04-15 23:24 | 18.01730 | 38.99998 | 32748 ft | 540 kts | 188° |
| 2026-04-15 23:24 | 17.94204 | 38.99671 | 32752 ft | 541 kts | 188° |
| 2026-04-15 23:25 | 17.86674 | 38.99389 | 32753 ft | 542 kts | 188° |
| 2026-04-15 23:25 | 17.79169 | 38.99122 | 32741 ft | 542 kts | 187° |
| 2026-04-15 23:26 | 17.71611 | 38.98850 | 32752 ft | 542 kts | 187° |
| 2026-04-15 23:26 | 17.64093 | 38.98577 | 32753 ft | 542 kts | 187° |
| 2026-04-15 23:27 | 17.56548 | 38.98302 | 32753 ft | 542 kts | 187° |
| 2026-04-15 23:27 | 17.48995 | 38.98028 | 32750 ft | 542 kts | 187° |
| 2026-04-15 23:28 | 17.41486 | 38.97756 | 32759 ft | 542 kts | 187° |
| 2026-04-15 23:28 | 17.33920 | 38.97481 | 32764 ft | 542 kts | 187° |
| 2026-04-15 23:29 | 17.26417 | 38.97209 | 32757 ft | 542 kts | 187° |
| 2026-04-15 23:29 | 17.18856 | 38.96934 | 32764 ft | 542 kts | 187° |
| 2026-04-15 23:30 | 17.11324 | 38.96662 | 32767 ft | 542 kts | 187° |
| 2026-04-15 23:30 | 17.03768 | 38.96388 | 32776 ft | 542 kts | 187° |
| 2026-04-15 23:31 | 16.96255 | 38.96116 | 32769 ft | 543 kts | 187° |
| 2026-04-15 23:31 | 16.88719 | 38.95844 | 32771 ft | 543 kts | 187° |
| 2026-04-15 23:32 | 16.81147 | 38.95571 | 32779 ft | 542 kts | 187° |
| 2026-04-15 23:32 | 16.73596 | 38.95298 | 32782 ft | 542 kts | 187° |
| 2026-04-15 23:33 | 16.66050 | 38.95027 | 32776 ft | 542 kts | 187° |
| 2026-04-15 23:33 | 16.58542 | 38.94756 | 32788 ft | 542 kts | 187° |
| 2026-04-15 23:34 | 16.50994 | 38.94484 | 32794 ft | 542 kts | 187° |
| 2026-04-15 23:36 | 16.24634 | 38.93537 | 32818 ft | 542 kts | 186° |
| 2026-04-15 23:36 | 16.17074 | 38.93266 | 32822 ft | 542 kts | 186° |
| 2026-04-15 23:37 | 16.09588 | 38.92997 | 32833 ft | 542 kts | 186° |
| 2026-04-15 23:37 | 16.02021 | 38.92727 | 32843 ft | 542 kts | 186° |
| 2026-04-15 23:38 | 15.94470 | 38.92456 | 32845 ft | 542 kts | 186° |
| 2026-04-15 23:38 | 15.86956 | 38.92187 | 32846 ft | 542 kts | 186° |
| 2026-04-15 23:39 | 15.79392 | 38.91917 | 32857 ft | 543 kts | 186° |
| 2026-04-15 23:39 | 15.71868 | 38.91649 | 32861 ft | 543 kts | 186° |
| 2026-04-15 23:40 | 15.64298 | 38.91379 | 32867 ft | 543 kts | 186° |
| 2026-04-15 23:40 | 15.56786 | 38.91110 | 32862 ft | 542 kts | 186° |
| 2026-04-15 23:41 | 15.49263 | 38.90844 | 32907 ft | 540 kts | 186° |
| 2026-04-15 23:41 | 15.41721 | 38.90573 | 32958 ft | 543 kts | 186° |
| 2026-04-15 23:41 | 15.37944 | 38.90439 | 33122 ft | 543 kts | 186° |
| 2026-04-15 23:42 | 15.34224 | 38.90328 | 33366 ft | 542 kts | 183° |
| 2026-04-15 23:42 | 15.30440 | 38.90622 | 33594 ft | 546 kts | 174° |
| 2026-04-15 23:42 | 15.26723 | 38.91476 | 33770 ft | 549 kts | 166° |
| 2026-04-15 23:42 | 15.23094 | 38.92802 | 33887 ft | 553 kts | 158° |
| 2026-04-15 23:43 | 15.19690 | 38.94585 | 34050 ft | 554 kts | 153° |
| 2026-04-15 23:43 | 15.16293 | 38.96488 | 34224 ft | 554 kts | 153° |
| 2026-04-15 23:43 | 15.12915 | 38.98390 | 34454 ft | 551 kts | 153° |
| 2026-04-15 23:43 | 15.09544 | 39.00270 | 34756 ft | 548 kts | 154° |
| 2026-04-15 23:44 | 15.06189 | 39.02117 | 34886 ft | 546 kts | 154° |
| 2026-04-15 23:44 | 14.99487 | 39.05749 | 34951 ft | 538 kts | 154° |
| 2026-04-15 23:45 | 14.92905 | 39.09290 | 34941 ft | 536 kts | 154° |
| 2026-04-15 23:45 | 14.86323 | 39.12834 | 34951 ft | 535 kts | 154° |
| 2026-04-15 23:46 | 14.79735 | 39.16384 | 34954 ft | 535 kts | 154° |
| 2026-04-15 23:46 | 14.73126 | 39.19945 | 34950 ft | 535 kts | 154° |
| 2026-04-15 23:47 | 14.66518 | 39.23502 | 34964 ft | 534 kts | 154° |
| 2026-04-15 23:47 | 14.59958 | 39.27032 | 34974 ft | 534 kts | 154° |
| 2026-04-15 23:48 | 14.53345 | 39.30588 | 34975 ft | 534 kts | 154° |
| 2026-04-15 23:48 | 14.46746 | 39.34133 | 34988 ft | 534 kts | 154° |
| 2026-04-15 23:49 | 14.40184 | 39.37659 | 35002 ft | 533 kts | 154° |
| 2026-04-15 23:49 | 14.33594 | 39.41201 | 34984 ft | 532 kts | 154° |
| 2026-04-15 23:50 | 14.27054 | 39.44715 | 34991 ft | 531 kts | 154° |
| 2026-04-15 23:50 | 14.20528 | 39.48217 | 35008 ft | 530 kts | 154° |
| 2026-04-15 23:51 | 14.10754 | 39.53458 | 35005 ft | 530 kts | 154° |
| 2026-04-15 23:51 | 14.04196 | 39.56972 | 35010 ft | 530 kts | 154° |
| 2026-04-15 23:52 | 13.97684 | 39.60460 | 34996 ft | 530 kts | 154° |
| 2026-04-15 23:52 | 13.91128 | 39.63969 | 34988 ft | 530 kts | 154° |
| 2026-04-15 23:53 | 13.84570 | 39.67476 | 34962 ft | 530 kts | 154° |
| 2026-04-15 23:53 | 13.78013 | 39.70981 | 34963 ft | 530 kts | 154° |
| 2026-04-15 23:54 | 13.71508 | 39.74455 | 34980 ft | 529 kts | 154° |
| 2026-04-15 23:54 | 13.64956 | 39.77954 | 34946 ft | 528 kts | 154° |
| 2026-04-15 23:55 | 13.58456 | 39.81421 | 34957 ft | 528 kts | 154° |
| 2026-04-15 23:55 | 13.51914 | 39.84909 | 34935 ft | 528 kts | 154° |
| 2026-04-15 23:56 | 13.45423 | 39.88367 | 34906 ft | 528 kts | 154° |
| 2026-04-15 23:56 | 13.38904 | 39.91841 | 34887 ft | 527 kts | 154° |
| 2026-04-15 23:57 | 13.32398 | 39.95301 | 34915 ft | 526 kts | 154° |
| 2026-04-15 23:57 | 13.25921 | 39.98746 | 34899 ft | 528 kts | 154° |
| 2026-04-15 23:58 | 13.19369 | 40.02228 | 34906 ft | 529 kts | 154° |
| 2026-04-15 23:58 | 13.12865 | 40.05683 | 34883 ft | 529 kts | 154° |
| 2026-04-15 23:59 | 13.06311 | 40.09163 | 34882 ft | 529 kts | 154° |
| 2026-04-15 23:59 | 12.99790 | 40.12623 | 34866 ft | 529 kts | 154° |
| 2026-04-16 00:00 | 12.93250 | 40.16091 | 34874 ft | 529 kts | 154° |
| 2026-04-16 00:00 | 12.86709 | 40.19557 | 34870 ft | 527 kts | 154° |
| 2026-04-16 00:01 | 12.80183 | 40.23014 | 34857 ft | 526 kts | 154° |
| 2026-04-16 00:01 | 12.73716 | 40.26437 | 34854 ft | 525 kts | 154° |
| 2026-04-16 00:02 | 12.67227 | 40.29870 | 34851 ft | 524 kts | 154° |
| 2026-04-16 00:02 | 12.60768 | 40.33285 | 34851 ft | 523 kts | 154° |
| 2026-04-16 00:03 | 12.54293 | 40.36707 | 34860 ft | 523 kts | 154° |
| 2026-04-16 00:03 | 12.47813 | 40.40130 | 34862 ft | 523 kts | 154° |
| 2026-04-16 00:04 | 12.41378 | 40.43500 | 34858 ft | 522 kts | 155° |
| 2026-04-16 00:04 | 12.34869 | 40.46836 | 34872 ft | 522 kts | 155° |
| 2026-04-16 00:05 | 12.28391 | 40.50149 | 34862 ft | 523 kts | 155° |
| 2026-04-16 00:05 | 12.21874 | 40.53490 | 34874 ft | 523 kts | 155° |
| 2026-04-16 00:06 | 12.16453 | 40.56274 | 34881 ft | 523 kts | 155° |
| 2026-04-16 00:06 | 12.09924 | 40.59626 | 34880 ft | 524 kts | 155° |
| 2026-04-16 00:07 | 12.03446 | 40.62949 | 34880 ft | 524 kts | 155° |
| 2026-04-16 00:07 | 11.96916 | 40.66297 | 34879 ft | 523 kts | 155° |
| 2026-04-16 00:08 | 11.90394 | 40.69638 | 34879 ft | 523 kts | 155° |
| 2026-04-16 00:08 | 11.83913 | 40.72957 | 34881 ft | 522 kts | 155° |
| 2026-04-16 00:09 | 11.77433 | 40.76274 | 34872 ft | 522 kts | 155° |
| 2026-04-16 00:09 | 11.70916 | 40.79608 | 34869 ft | 522 kts | 155° |
| 2026-04-16 00:10 | 11.64453 | 40.82912 | 34879 ft | 521 kts | 154° |
| 2026-04-16 00:10 | 11.57953 | 40.86234 | 34871 ft | 521 kts | 154° |
| 2026-04-16 00:11 | 11.51495 | 40.89533 | 34875 ft | 521 kts | 155° |
| 2026-04-16 00:11 | 11.45000 | 40.92848 | 34869 ft | 521 kts | 155° |
| 2026-04-16 00:12 | 11.38497 | 40.96166 | 34879 ft | 522 kts | 155° |
| 2026-04-16 00:12 | 11.32032 | 40.99463 | 34874 ft | 522 kts | 154° |
| 2026-04-16 00:13 | 11.25522 | 41.02781 | 34873 ft | 522 kts | 154° |
| 2026-04-16 00:13 | 11.19064 | 41.06071 | 34878 ft | 522 kts | 154° |
| 2026-04-16 00:14 | 11.12550 | 41.09388 | 34877 ft | 522 kts | 154° |
| 2026-04-16 00:14 | 11.06073 | 41.12684 | 34880 ft | 522 kts | 154° |
| 2026-04-16 00:15 | 10.99570 | 41.15992 | 34880 ft | 522 kts | 154° |
| 2026-04-16 00:15 | 10.93054 | 41.19305 | 34878 ft | 522 kts | 154° |
| 2026-04-16 00:16 | 10.86588 | 41.22591 | 34889 ft | 522 kts | 154° |
| 2026-04-16 00:16 | 10.80106 | 41.25883 | 34880 ft | 522 kts | 154° |
| 2026-04-16 00:17 | 10.73579 | 41.29197 | 34888 ft | 522 kts | 154° |
| 2026-04-16 00:17 | 10.67115 | 41.32477 | 34887 ft | 521 kts | 154° |
| 2026-04-16 00:18 | 10.60608 | 41.35778 | 34897 ft | 520 kts | 154° |
| 2026-04-16 00:18 | 10.54119 | 41.39067 | 34891 ft | 520 kts | 154° |
| 2026-04-16 00:19 | 10.47679 | 41.42331 | 34891 ft | 520 kts | 154° |
| 2026-04-16 00:19 | 10.41209 | 41.45607 | 34899 ft | 519 kts | 154° |
| 2026-04-16 00:20 | 10.34743 | 41.48881 | 34896 ft | 519 kts | 154° |
| 2026-04-16 00:20 | 10.28296 | 41.52143 | 34899 ft | 518 kts | 154° |
| 2026-04-16 00:21 | 10.21853 | 41.55402 | 34898 ft | 518 kts | 154° |
| 2026-04-16 00:21 | 10.15387 | 41.58671 | 34897 ft | 518 kts | 154° |
| 2026-04-16 00:22 | 10.08913 | 41.61942 | 34899 ft | 519 kts | 154° |
| 2026-04-16 00:22 | 10.02458 | 41.65202 | 34905 ft | 519 kts | 154° |
| 2026-04-16 00:23 | 9.96021 | 41.68452 | 34903 ft | 519 kts | 154° |
| 2026-04-16 00:23 | 9.89540 | 41.71723 | 34910 ft | 519 kts | 154° |
| 2026-04-16 00:24 | 9.83055 | 41.74995 | 34908 ft | 519 kts | 154° |
| 2026-04-16 00:24 | 9.76603 | 41.78248 | 34938 ft | 520 kts | 154° |
| 2026-04-16 00:25 | 9.70152 | 41.81501 | 34933 ft | 520 kts | 154° |
| 2026-04-16 00:25 | 9.63647 | 41.84776 | 34956 ft | 520 kts | 155° |
| 2026-04-16 00:26 | 9.57112 | 41.87847 | 34986 ft | 520 kts | 156° |
| 2026-04-16 00:26 | 9.50498 | 41.90820 | 34983 ft | 520 kts | 157° |
| 2026-04-16 00:27 | 9.43862 | 41.93824 | 34997 ft | 520 kts | 156° |
| 2026-04-16 00:27 | 9.37262 | 41.96845 | 34999 ft | 520 kts | 156° |
| 2026-04-16 00:28 | 9.30714 | 41.99852 | 34997 ft | 520 kts | 156° |
| 2026-04-16 00:28 | 9.24116 | 42.02879 | 35001 ft | 520 kts | 156° |
| 2026-04-16 00:29 | 9.17511 | 42.05905 | 34989 ft | 519 kts | 156° |
| 2026-04-16 00:29 | 9.10954 | 42.08908 | 34988 ft | 519 kts | 156° |
| 2026-04-16 00:30 | 9.04364 | 42.11925 | 34974 ft | 519 kts | 156° |
| 2026-04-16 00:30 | 8.97812 | 42.14923 | 34966 ft | 519 kts | 156° |
| 2026-04-16 00:31 | 8.91221 | 42.17938 | 34971 ft | 517 kts | 156° |
| 2026-04-16 00:31 | 8.84659 | 42.20938 | 34953 ft | 516 kts | 156° |
| 2026-04-16 00:32 | 8.78161 | 42.23909 | 34954 ft | 515 kts | 156° |
| 2026-04-16 00:32 | 8.71615 | 42.26899 | 34948 ft | 514 kts | 156° |
| 2026-04-16 00:33 | 8.65134 | 42.29860 | 34950 ft | 514 kts | 156° |
| 2026-04-16 00:33 | 8.58612 | 42.32837 | 34938 ft | 514 kts | 156° |
| 2026-04-16 00:34 | 8.52076 | 42.35821 | 34941 ft | 514 kts | 156° |
| 2026-04-16 00:34 | 8.45578 | 42.38786 | 34934 ft | 514 kts | 156° |
| 2026-04-16 00:35 | 8.39060 | 42.41761 | 34927 ft | 515 kts | 156° |
| 2026-04-16 00:35 | 8.32508 | 42.44763 | 34926 ft | 516 kts | 156° |
| 2026-04-16 00:36 | 8.25989 | 42.47748 | 34924 ft | 516 kts | 156° |
| 2026-04-16 00:36 | 8.19424 | 42.50752 | 34923 ft | 517 kts | 156° |
| 2026-04-16 00:37 | 8.12901 | 42.53734 | 34914 ft | 517 kts | 156° |
| 2026-04-16 00:37 | 8.06325 | 42.56742 | 34912 ft | 518 kts | 156° |
| 2026-04-16 00:38 | 7.99783 | 42.59734 | 34904 ft | 518 kts | 156° |
| 2026-04-16 00:38 | 7.93218 | 42.62735 | 34900 ft | 518 kts | 156° |
| 2026-04-16 00:39 | 7.86628 | 42.65747 | 34896 ft | 518 kts | 156° |
| 2026-04-16 00:39 | 7.80088 | 42.68735 | 34888 ft | 518 kts | 156° |
| 2026-04-16 00:40 | 7.73507 | 42.71740 | 34886 ft | 518 kts | 156° |
| 2026-04-16 00:40 | 7.66931 | 42.74742 | 34890 ft | 517 kts | 156° |
| 2026-04-16 00:41 | 7.60408 | 42.77719 | 34886 ft | 517 kts | 156° |
| 2026-04-16 00:41 | 7.53838 | 42.80716 | 34891 ft | 517 kts | 156° |
| 2026-04-16 00:42 | 7.47270 | 42.83712 | 34891 ft | 517 kts | 157° |
| 2026-04-16 00:42 | 7.40747 | 42.86685 | 34893 ft | 517 kts | 157° |
| 2026-04-16 00:43 | 7.34181 | 42.89678 | 34893 ft | 517 kts | 157° |
| 2026-04-16 00:43 | 7.27658 | 42.92650 | 34894 ft | 517 kts | 157° |
| 2026-04-16 00:44 | 7.21083 | 42.95645 | 34888 ft | 517 kts | 157° |
| 2026-04-16 00:44 | 7.14550 | 42.98620 | 34894 ft | 517 kts | 157° |
| 2026-04-16 00:45 | 7.07978 | 43.01612 | 34893 ft | 517 kts | 157° |
| 2026-04-16 00:45 | 7.01445 | 43.04585 | 34894 ft | 517 kts | 157° |
| 2026-04-16 00:46 | 6.94872 | 43.07576 | 34894 ft | 518 kts | 157° |
| 2026-04-16 00:46 | 6.88340 | 43.10554 | 34889 ft | 518 kts | 157° |
| 2026-04-16 00:47 | 6.81755 | 43.13560 | 34887 ft | 518 kts | 157° |
| 2026-04-16 00:47 | 6.75176 | 43.16561 | 34887 ft | 518 kts | 157° |
| 2026-04-16 00:48 | 6.68641 | 43.19541 | 34884 ft | 518 kts | 157° |
| 2026-04-16 00:48 | 6.62054 | 43.22544 | 34875 ft | 519 kts | 157° |
| 2026-04-16 00:50 | 6.35796 | 43.34504 | 34868 ft | 518 kts | 157° |
| 2026-04-16 00:51 | 6.30298 | 43.37007 | 34863 ft | 518 kts | 157° |
| 2026-04-16 00:51 | 6.23758 | 43.39983 | 34863 ft | 518 kts | 157° |
| 2026-04-16 00:52 | 6.17164 | 43.42983 | 34861 ft | 518 kts | 157° |
| 2026-04-16 00:52 | 6.10632 | 43.45953 | 34866 ft | 518 kts | 157° |
| 2026-04-16 00:53 | 6.04039 | 43.48951 | 34866 ft | 519 kts | 158° |
| 2026-04-16 00:53 | 5.97442 | 43.51950 | 34867 ft | 520 kts | 158° |
| 2026-04-16 00:54 | 5.90866 | 43.54939 | 34865 ft | 521 kts | 158° |
| 2026-04-16 00:54 | 5.84279 | 43.57932 | 34870 ft | 521 kts | 158° |
| 2026-04-16 00:55 | 5.77660 | 43.60939 | 34872 ft | 521 kts | 158° |
| 2026-04-16 00:55 | 5.71069 | 43.63933 | 34867 ft | 521 kts | 158° |
| 2026-04-16 00:56 | 5.64456 | 43.66936 | 34869 ft | 521 kts | 158° |
| 2026-04-16 00:56 | 5.57840 | 43.69949 | 34870 ft | 521 kts | 158° |
| 2026-04-16 00:57 | 5.47958 | 43.74451 | 34879 ft | 520 kts | 157° |
| 2026-04-16 00:58 | 5.41352 | 43.77458 | 34872 ft | 520 kts | 157° |
| 2026-04-16 00:58 | 5.34757 | 43.80461 | 34875 ft | 519 kts | 157° |
| 2026-04-16 00:59 | 5.28200 | 43.83445 | 34869 ft | 519 kts | 157° |
| 2026-04-16 00:59 | 5.21604 | 43.86445 | 34873 ft | 519 kts | 157° |
| 2026-04-16 01:00 | 5.15045 | 43.89429 | 34870 ft | 520 kts | 157° |
| 2026-04-16 01:00 | 5.08439 | 43.92433 | 34870 ft | 520 kts | 157° |
| 2026-04-16 01:01 | 5.01887 | 43.95413 | 34875 ft | 520 kts | 157° |
| 2026-04-16 01:01 | 4.95286 | 43.98414 | 34870 ft | 521 kts | 157° |
| 2026-04-16 01:02 | 4.88653 | 44.01418 | 34880 ft | 521 kts | 158° |
| 2026-04-16 01:02 | 4.82059 | 44.04355 | 34879 ft | 521 kts | 158° |
| 2026-04-16 01:03 | 4.75428 | 44.07298 | 34880 ft | 521 kts | 158° |
| 2026-04-16 01:03 | 4.68785 | 44.10252 | 34882 ft | 521 kts | 158° |
| 2026-04-16 01:04 | 4.62199 | 44.13187 | 34889 ft | 519 kts | 158° |
| 2026-04-16 01:04 | 4.55608 | 44.16124 | 34881 ft | 517 kts | 158° |
| 2026-04-16 01:05 | 4.49031 | 44.19053 | 34880 ft | 515 kts | 158° |
| 2026-04-16 01:05 | 4.42517 | 44.21953 | 34886 ft | 514 kts | 158° |
| 2026-04-16 01:06 | 4.35971 | 44.24867 | 34886 ft | 513 kts | 158° |
| 2026-04-16 01:06 | 4.29490 | 44.27751 | 34884 ft | 512 kts | 158° |
| 2026-04-16 01:07 | 4.22958 | 44.30658 | 34889 ft | 512 kts | 158° |
| 2026-04-16 01:07 | 4.16430 | 44.33562 | 34885 ft | 512 kts | 158° |
| 2026-04-16 01:08 | 4.09948 | 44.36445 | 34887 ft | 512 kts | 158° |
| 2026-04-16 01:08 | 4.03413 | 44.39352 | 34880 ft | 513 kts | 158° |
| 2026-04-16 01:09 | 3.96865 | 44.42263 | 34884 ft | 515 kts | 158° |
| 2026-04-16 01:09 | 3.90342 | 44.45163 | 34885 ft | 516 kts | 158° |
| 2026-04-16 01:10 | 3.83774 | 44.48083 | 34883 ft | 516 kts | 158° |
| 2026-04-16 01:10 | 3.77187 | 44.51011 | 34883 ft | 517 kts | 158° |
| 2026-04-16 01:11 | 3.70643 | 44.53919 | 34881 ft | 517 kts | 158° |
| 2026-04-16 01:11 | 3.64066 | 44.56841 | 34882 ft | 516 kts | 158° |
| 2026-04-16 01:12 | 3.57489 | 44.59763 | 34882 ft | 516 kts | 158° |
| 2026-04-16 01:12 | 3.50967 | 44.62660 | 34879 ft | 515 kts | 158° |
| 2026-04-16 01:13 | 3.44405 | 44.65573 | 34878 ft | 515 kts | 158° |
| 2026-04-16 01:13 | 3.37845 | 44.68486 | 34875 ft | 515 kts | 158° |
| 2026-04-16 01:14 | 3.31281 | 44.71400 | 34871 ft | 515 kts | 158° |
| 2026-04-16 01:14 | 3.24755 | 44.74297 | 34868 ft | 515 kts | 158° |
| 2026-04-16 01:15 | 3.18189 | 44.77211 | 34871 ft | 515 kts | 158° |
| 2026-04-16 01:15 | 3.11615 | 44.80129 | 34865 ft | 516 kts | 158° |
| 2026-04-16 01:16 | 3.05072 | 44.83032 | 34861 ft | 516 kts | 158° |
| 2026-04-16 01:16 | 2.98493 | 44.85951 | 34865 ft | 516 kts | 158° |
| 2026-04-16 01:17 | 2.91936 | 44.88859 | 34861 ft | 517 kts | 158° |
| 2026-04-16 01:17 | 2.85334 | 44.91787 | 34861 ft | 518 kts | 158° |
| 2026-04-16 01:18 | 2.78778 | 44.94695 | 34860 ft | 518 kts | 158° |
| 2026-04-16 01:18 | 2.72168 | 44.97626 | 34861 ft | 518 kts | 158° |
| 2026-04-16 01:19 | 2.65551 | 45.00559 | 34856 ft | 519 kts | 158° |
| 2026-04-16 01:19 | 2.58974 | 45.03475 | 34861 ft | 519 kts | 158° |
| 2026-04-16 01:20 | 2.52353 | 45.06411 | 34863 ft | 519 kts | 158° |
| 2026-04-16 01:20 | 2.45778 | 45.09325 | 34860 ft | 519 kts | 158° |
| 2026-04-16 01:21 | 2.39148 | 45.12263 | 34853 ft | 520 kts | 158° |
| 2026-04-16 01:21 | 2.32560 | 45.15182 | 34861 ft | 520 kts | 158° |
| 2026-04-16 01:22 | 2.25927 | 45.18122 | 34858 ft | 521 kts | 158° |
| 2026-04-16 01:22 | 2.19329 | 45.21045 | 34856 ft | 521 kts | 158° |
| 2026-04-16 01:23 | 2.12685 | 45.23989 | 34858 ft | 522 kts | 158° |
| 2026-04-16 01:23 | 2.06046 | 45.26931 | 34851 ft | 522 kts | 158° |
| 2026-04-16 01:24 | 1.99408 | 45.29868 | 34852 ft | 522 kts | 159° |
| 2026-04-16 01:24 | 1.92726 | 45.32754 | 34850 ft | 521 kts | 159° |
| 2026-04-16 01:25 | 1.86089 | 45.35589 | 34859 ft | 520 kts | 159° |
| 2026-04-16 01:25 | 1.79440 | 45.38438 | 34843 ft | 518 kts | 159° |
| 2026-04-16 01:26 | 1.72855 | 45.41267 | 34844 ft | 516 kts | 159° |
| 2026-04-16 01:26 | 1.66246 | 45.44110 | 34845 ft | 516 kts | 159° |
| 2026-04-16 01:27 | 1.59648 | 45.46946 | 34843 ft | 516 kts | 159° |
| 2026-04-16 01:27 | 1.53082 | 45.49768 | 34848 ft | 516 kts | 159° |
| 2026-04-16 01:28 | 1.46456 | 45.52617 | 34849 ft | 517 kts | 159° |
| 2026-04-16 01:28 | 1.39866 | 45.55449 | 34847 ft | 518 kts | 159° |
| 2026-04-16 01:29 | 1.33224 | 45.58304 | 34848 ft | 518 kts | 159° |
| 2026-04-16 01:29 | 1.26575 | 45.61161 | 34845 ft | 519 kts | 159° |
| 2026-04-16 01:30 | 1.19938 | 45.64013 | 34849 ft | 519 kts | 159° |
| 2026-04-16 01:30 | 1.13325 | 45.66854 | 34854 ft | 519 kts | 159° |
| 2026-04-16 01:31 | 1.06711 | 45.69696 | 34848 ft | 518 kts | 159° |
| 2026-04-16 01:31 | 1.00081 | 45.72545 | 34843 ft | 518 kts | 159° |
| 2026-04-16 01:32 | 0.93454 | 45.75393 | 34847 ft | 517 kts | 159° |
| 2026-04-16 01:32 | 0.86871 | 45.78221 | 34848 ft | 516 kts | 159° |
| 2026-04-16 01:33 | 0.80268 | 45.81057 | 34856 ft | 516 kts | 159° |
| 2026-04-16 01:33 | 0.73705 | 45.83877 | 34852 ft | 516 kts | 159° |
| 2026-04-16 01:34 | 0.68205 | 45.86240 | 34845 ft | 515 kts | 159° |
| 2026-04-16 01:34 | 0.60538 | 45.89534 | 34848 ft | 515 kts | 159° |
| 2026-04-16 01:35 | 0.55023 | 45.91904 | 34846 ft | 515 kts | 159° |
| 2026-04-16 01:35 | 0.48485 | 45.94753 | 34847 ft | 514 kts | 159° |
| 2026-04-16 01:36 | 0.41918 | 45.97641 | 34843 ft | 514 kts | 159° |
| 2026-04-16 01:36 | 0.35397 | 46.00505 | 34846 ft | 514 kts | 159° |
| 2026-04-16 01:37 | 0.28834 | 46.03382 | 34849 ft | 514 kts | 159° |
| 2026-04-16 01:37 | 0.22315 | 46.06238 | 34847 ft | 514 kts | 159° |
| 2026-04-16 01:38 | 0.15754 | 46.09112 | 34846 ft | 514 kts | 159° |
| 2026-04-16 01:38 | 0.09203 | 46.11983 | 34846 ft | 514 kts | 159° |
| 2026-04-16 01:39 | 0.02679 | 46.14842 | 34844 ft | 514 kts | 159° |
| 2026-04-16 01:39 | -0.03885 | 46.17718 | 34847 ft | 514 kts | 159° |
| 2026-04-16 01:40 | -0.10442 | 46.20592 | 34848 ft | 514 kts | 159° |
| 2026-04-16 01:40 | -0.16953 | 46.23446 | 34846 ft | 514 kts | 159° |
| 2026-04-16 01:41 | -0.23532 | 46.26297 | 34841 ft | 513 kts | 159° |
| 2026-04-16 01:41 | -0.30082 | 46.29074 | 34846 ft | 513 kts | 159° |
| 2026-04-16 01:42 | -0.36676 | 46.31867 | 34846 ft | 513 kts | 159° |
| 2026-04-16 01:42 | -0.43215 | 46.34647 | 34844 ft | 513 kts | 159° |
| 2026-04-16 01:43 | -0.49801 | 46.37451 | 34843 ft | 513 kts | 159° |
| 2026-04-16 01:43 | -0.56380 | 46.40254 | 34846 ft | 513 kts | 159° |
| 2026-04-16 01:44 | -0.62929 | 46.43043 | 34841 ft | 513 kts | 159° |
| 2026-04-16 01:44 | -0.69494 | 46.45838 | 34842 ft | 513 kts | 159° |
| 2026-04-16 01:45 | -0.76070 | 46.48639 | 34844 ft | 512 kts | 159° |
| 2026-04-16 01:45 | -0.82621 | 46.51429 | 34842 ft | 512 kts | 159° |
| 2026-04-16 01:46 | -0.89152 | 46.54210 | 34848 ft | 512 kts | 159° |
| 2026-04-16 01:46 | -0.95713 | 46.57005 | 34839 ft | 512 kts | 159° |
| 2026-04-16 01:47 | -1.02287 | 46.59805 | 34839 ft | 512 kts | 159° |
| 2026-04-16 01:47 | -1.08841 | 46.62597 | 34841 ft | 512 kts | 159° |
| 2026-04-16 01:48 | -1.15367 | 46.65378 | 34841 ft | 512 kts | 159° |
| 2026-04-16 01:48 | -1.21934 | 46.68178 | 34842 ft | 512 kts | 159° |
| 2026-04-16 01:49 | -1.28445 | 46.70956 | 34842 ft | 511 kts | 159° |
| 2026-04-16 01:49 | -1.35006 | 46.73756 | 34845 ft | 511 kts | 159° |
| 2026-04-16 01:50 | -1.41525 | 46.76538 | 34846 ft | 511 kts | 159° |
| 2026-04-16 01:50 | -1.48076 | 46.79334 | 34841 ft | 511 kts | 159° |
| 2026-04-16 01:51 | -1.54592 | 46.82115 | 34844 ft | 511 kts | 159° |
| 2026-04-16 01:51 | -1.61141 | 46.84911 | 34843 ft | 510 kts | 159° |
| 2026-04-16 01:52 | -1.67661 | 46.87694 | 34845 ft | 510 kts | 159° |
| 2026-04-16 01:52 | -1.74197 | 46.90484 | 34844 ft | 510 kts | 159° |
| 2026-04-16 01:53 | -1.80720 | 46.93269 | 34846 ft | 510 kts | 159° |
| 2026-04-16 01:53 | -1.87213 | 46.96041 | 34844 ft | 509 kts | 159° |
| 2026-04-16 01:54 | -1.93745 | 46.98831 | 34844 ft | 509 kts | 159° |
| 2026-04-16 01:54 | -2.00226 | 47.01598 | 34847 ft | 509 kts | 159° |
| 2026-04-16 01:55 | -2.06754 | 47.04386 | 34843 ft | 508 kts | 159° |
| 2026-04-16 01:55 | -2.13256 | 47.07163 | 34840 ft | 508 kts | 159° |
| 2026-04-16 01:56 | -2.19727 | 47.09928 | 34840 ft | 507 kts | 159° |
| 2026-04-16 01:56 | -2.26237 | 47.12709 | 34848 ft | 507 kts | 159° |
| 2026-04-16 01:57 | -2.32684 | 47.15463 | 34846 ft | 506 kts | 159° |
| 2026-04-16 01:57 | -2.39171 | 47.18235 | 34846 ft | 506 kts | 159° |
| 2026-04-16 01:58 | -2.45654 | 47.21005 | 34846 ft | 506 kts | 159° |
| 2026-04-16 01:58 | -2.52126 | 47.23771 | 34849 ft | 506 kts | 159° |
| 2026-04-16 01:59 | -2.58576 | 47.26528 | 34850 ft | 506 kts | 159° |
| 2026-04-16 01:59 | -2.65076 | 47.29306 | 34850 ft | 506 kts | 159° |
| 2026-04-16 02:00 | -2.71527 | 47.32065 | 34850 ft | 506 kts | 159° |
| 2026-04-16 02:00 | -2.78007 | 47.34835 | 34851 ft | 506 kts | 159° |
| 2026-04-16 02:01 | -2.84465 | 47.37597 | 34859 ft | 506 kts | 159° |
| 2026-04-16 02:01 | -2.90950 | 47.40371 | 34853 ft | 506 kts | 159° |
| 2026-04-16 02:02 | -2.97399 | 47.43131 | 34851 ft | 505 kts | 159° |
| 2026-04-16 02:02 | -3.03836 | 47.45884 | 34852 ft | 505 kts | 159° |
| 2026-04-16 02:03 | -3.10300 | 47.48649 | 34855 ft | 505 kts | 159° |
| 2026-04-16 02:03 | -3.16781 | 47.51422 | 34852 ft | 505 kts | 159° |
| 2026-04-16 02:04 | -3.26449 | 47.55562 | 34853 ft | 504 kts | 159° |
| 2026-04-16 02:04 | -3.32875 | 47.58314 | 34852 ft | 504 kts | 159° |
| 2026-04-16 02:05 | -3.39323 | 47.61075 | 34854 ft | 504 kts | 159° |
| 2026-04-16 02:05 | -3.45778 | 47.63841 | 34852 ft | 504 kts | 159° |
| 2026-04-16 02:06 | -3.52213 | 47.66597 | 34851 ft | 504 kts | 159° |
| 2026-04-16 02:06 | -3.58682 | 47.69370 | 34853 ft | 504 kts | 159° |
| 2026-04-16 02:07 | -3.65105 | 47.72122 | 34856 ft | 504 kts | 159° |
| 2026-04-16 02:07 | -3.71567 | 47.74892 | 34856 ft | 504 kts | 159° |
| 2026-04-16 02:08 | -3.78012 | 47.77655 | 34856 ft | 504 kts | 159° |
| 2026-04-16 02:08 | -3.84481 | 47.80429 | 34855 ft | 505 kts | 159° |
| 2026-04-16 02:09 | -3.90948 | 47.83202 | 34854 ft | 505 kts | 159° |
| 2026-04-16 02:09 | -3.97373 | 47.85958 | 34854 ft | 505 kts | 159° |
| 2026-04-16 02:10 | -4.03857 | 47.88740 | 34854 ft | 505 kts | 159° |
| 2026-04-16 02:10 | -4.10322 | 47.91514 | 34859 ft | 506 kts | 159° |
| 2026-04-16 02:11 | -4.16772 | 47.94283 | 34858 ft | 506 kts | 159° |
| 2026-04-16 02:11 | -4.23265 | 47.97070 | 34854 ft | 506 kts | 159° |
| 2026-04-16 02:12 | -4.29715 | 47.99830 | 34859 ft | 506 kts | 159° |
| 2026-04-16 02:12 | -4.36223 | 48.02615 | 34859 ft | 506 kts | 159° |
| 2026-04-16 02:13 | -4.42710 | 48.05392 | 34857 ft | 507 kts | 159° |
| 2026-04-16 02:13 | -4.49165 | 48.08158 | 34858 ft | 506 kts | 159° |
| 2026-04-16 02:14 | -4.55659 | 48.10940 | 34858 ft | 506 kts | 159° |
| 2026-04-16 02:14 | -4.62109 | 48.13705 | 34858 ft | 506 kts | 159° |
| 2026-04-16 02:15 | -4.68605 | 48.16490 | 34858 ft | 506 kts | 159° |
| 2026-04-16 02:15 | -4.75093 | 48.19271 | 34861 ft | 506 kts | 159° |
| 2026-04-16 02:16 | -4.81553 | 48.22041 | 34859 ft | 506 kts | 159° |
| 2026-04-16 02:16 | -4.87875 | 48.24753 | 34864 ft | 506 kts | 159° |
| 2026-04-16 02:17 | -4.94481 | 48.27588 | 34856 ft | 506 kts | 159° |
| 2026-04-16 02:17 | -5.00928 | 48.30354 | 34863 ft | 506 kts | 159° |
| 2026-04-16 02:18 | -5.07373 | 48.33120 | 34863 ft | 506 kts | 159° |
| 2026-04-16 02:18 | -5.13835 | 48.35894 | 34864 ft | 505 kts | 158° |
| 2026-04-16 02:19 | -5.20326 | 48.38681 | 34863 ft | 505 kts | 158° |
| 2026-04-16 02:19 | -5.26804 | 48.41464 | 34864 ft | 505 kts | 158° |
| 2026-04-16 02:20 | -5.33237 | 48.44227 | 34864 ft | 506 kts | 158° |
| 2026-04-16 02:20 | -5.38627 | 48.46543 | 34863 ft | 506 kts | 158° |
| 2026-04-16 02:21 | -5.46168 | 48.49784 | 34864 ft | 506 kts | 158° |
| 2026-04-16 02:21 | -5.51558 | 48.52101 | 34863 ft | 506 kts | 158° |
| 2026-04-16 02:22 | -5.58030 | 48.54884 | 34862 ft | 506 kts | 158° |
| 2026-04-16 02:22 | -5.64528 | 48.57679 | 34864 ft | 506 kts | 158° |
| 2026-04-16 02:23 | -5.70958 | 48.60445 | 34870 ft | 506 kts | 158° |
| 2026-04-16 02:23 | -5.77422 | 48.63226 | 34865 ft | 506 kts | 158° |
| 2026-04-16 02:24 | -5.83925 | 48.66025 | 34865 ft | 507 kts | 158° |
| 2026-04-16 02:24 | -5.90377 | 48.68802 | 34867 ft | 507 kts | 158° |
| 2026-04-16 02:25 | -5.96891 | 48.71607 | 34867 ft | 508 kts | 158° |
| 2026-04-16 02:25 | -6.03397 | 48.74410 | 34861 ft | 509 kts | 158° |
| 2026-04-16 02:26 | -6.09889 | 48.77207 | 34867 ft | 510 kts | 158° |
| 2026-04-16 02:26 | -6.16427 | 48.80024 | 34868 ft | 511 kts | 158° |
| 2026-04-16 02:27 | -6.22978 | 48.82848 | 34869 ft | 512 kts | 158° |
| 2026-04-16 02:27 | -6.29502 | 48.85661 | 34869 ft | 512 kts | 158° |
| 2026-04-16 02:28 | -6.36080 | 48.88499 | 34867 ft | 513 kts | 159° |
| 2026-04-16 02:28 | -6.42627 | 48.91323 | 34870 ft | 514 kts | 159° |
| 2026-04-16 02:29 | -6.49215 | 48.94166 | 34868 ft | 514 kts | 159° |
| 2026-04-16 02:29 | -6.55759 | 48.96991 | 34868 ft | 514 kts | 159° |
| 2026-04-16 02:30 | -6.62333 | 48.99830 | 34870 ft | 514 kts | 159° |
| 2026-04-16 02:30 | -6.68935 | 49.02681 | 34867 ft | 514 kts | 159° |
| 2026-04-16 02:31 | -6.75492 | 49.05514 | 34870 ft | 514 kts | 159° |
| 2026-04-16 02:31 | -6.82081 | 49.08361 | 34869 ft | 514 kts | 159° |
| 2026-04-16 02:32 | -6.88631 | 49.11193 | 34867 ft | 515 kts | 159° |
| 2026-04-16 02:32 | -6.95227 | 49.14045 | 34871 ft | 516 kts | 159° |
| 2026-04-16 02:33 | -7.01800 | 49.16889 | 34873 ft | 516 kts | 159° |
| 2026-04-16 02:33 | -7.08427 | 49.19756 | 34873 ft | 517 kts | 159° |
| 2026-04-16 02:34 | -7.15017 | 49.22609 | 34872 ft | 518 kts | 159° |
| 2026-04-16 02:34 | -7.21626 | 49.25470 | 34876 ft | 518 kts | 159° |
| 2026-04-16 02:35 | -7.28262 | 49.28344 | 34871 ft | 518 kts | 159° |
| 2026-04-16 02:35 | -7.34897 | 49.31219 | 34878 ft | 518 kts | 159° |
| 2026-04-16 02:36 | -7.41515 | 49.34087 | 34872 ft | 517 kts | 159° |
| 2026-04-16 02:36 | -7.48089 | 49.36937 | 34875 ft | 517 kts | 159° |
| 2026-04-16 02:37 | -7.54716 | 49.39811 | 34874 ft | 518 kts | 159° |
| 2026-04-16 02:37 | -7.61311 | 49.42671 | 34876 ft | 518 kts | 159° |
| 2026-04-16 02:38 | -7.67960 | 49.45557 | 34875 ft | 519 kts | 159° |
| 2026-04-16 02:38 | -7.74571 | 49.48427 | 34879 ft | 519 kts | 159° |
| 2026-04-16 02:39 | -7.81221 | 49.51315 | 34884 ft | 519 kts | 159° |
| 2026-04-16 02:39 | -7.87856 | 49.54198 | 34883 ft | 520 kts | 159° |
| 2026-04-16 02:40 | -7.94511 | 49.57089 | 34881 ft | 521 kts | 159° |
| 2026-04-16 02:40 | -8.01168 | 49.59983 | 34881 ft | 522 kts | 159° |
| 2026-04-16 02:41 | -8.07853 | 49.62891 | 34880 ft | 522 kts | 159° |
| 2026-04-16 02:41 | -8.14502 | 49.65784 | 34878 ft | 523 kts | 160° |
| 2026-04-16 02:42 | -8.21207 | 49.68701 | 34890 ft | 524 kts | 160° |
| 2026-04-16 02:42 | -8.27866 | 49.71600 | 34886 ft | 524 kts | 160° |
| 2026-04-16 02:43 | -8.34593 | 49.74529 | 34886 ft | 525 kts | 160° |
| 2026-04-16 02:43 | -8.41279 | 49.77443 | 34888 ft | 525 kts | 160° |
| 2026-04-16 02:44 | -8.48016 | 49.80379 | 34882 ft | 525 kts | 160° |
| 2026-04-16 02:44 | -8.54695 | 49.83292 | 34882 ft | 525 kts | 160° |
| 2026-04-16 02:45 | -8.61418 | 49.86224 | 34886 ft | 525 kts | 160° |
| 2026-04-16 02:45 | -8.68094 | 49.89137 | 34887 ft | 524 kts | 160° |
| 2026-04-16 02:46 | -8.74816 | 49.92072 | 34882 ft | 527 kts | 161° |
| 2026-04-16 02:46 | -8.81548 | 49.95010 | 34894 ft | 529 kts | 161° |
| 2026-04-16 02:47 | -8.88313 | 49.97965 | 34899 ft | 531 kts | 161° |
| 2026-04-16 02:47 | -8.95072 | 50.00919 | 34888 ft | 532 kts | 161° |
| 2026-04-16 02:48 | -9.01887 | 50.03900 | 34893 ft | 533 kts | 162° |
| 2026-04-16 02:48 | -9.08672 | 50.06868 | 34879 ft | 533 kts | 162° |
| 2026-04-16 02:49 | -9.15512 | 50.09861 | 34887 ft | 534 kts | 162° |
| 2026-04-16 02:49 | -9.22298 | 50.12832 | 34887 ft | 533 kts | 162° |
| 2026-04-16 02:50 | -9.29085 | 50.15805 | 34889 ft | 533 kts | 162° |
| 2026-04-16 02:50 | -9.35909 | 50.18795 | 34879 ft | 532 kts | 162° |
| 2026-04-16 02:51 | -9.42697 | 50.21771 | 34886 ft | 530 kts | 162° |
| 2026-04-16 02:51 | -9.49430 | 50.24723 | 34887 ft | 529 kts | 162° |
| 2026-04-16 02:52 | -9.56192 | 50.27689 | 34890 ft | 529 kts | 162° |
| 2026-04-16 02:52 | -9.62964 | 50.30661 | 34902 ft | 528 kts | 162° |
| 2026-04-16 02:53 | -9.69684 | 50.33612 | 34888 ft | 527 kts | 162° |
| 2026-04-16 02:53 | -9.76418 | 50.36571 | 34890 ft | 526 kts | 162° |
| 2026-04-16 02:54 | -9.83110 | 50.39511 | 34893 ft | 526 kts | 162° |
| 2026-04-16 02:54 | -9.89846 | 50.42472 | 34893 ft | 526 kts | 162° |
| 2026-04-16 02:55 | -9.96523 | 50.45409 | 34897 ft | 526 kts | 162° |
| 2026-04-16 02:55 | -10.03266 | 50.48376 | 34892 ft | 526 kts | 162° |
| 2026-04-16 02:56 | -10.09988 | 50.51336 | 34897 ft | 526 kts | 162° |
| 2026-04-16 02:56 | -10.16677 | 50.54282 | 34896 ft | 526 kts | 162° |
| 2026-04-16 02:57 | -10.23375 | 50.57234 | 34910 ft | 526 kts | 162° |
| 2026-04-16 02:57 | -10.30106 | 50.60201 | 34899 ft | 527 kts | 162° |
| 2026-04-16 02:58 | -10.36850 | 50.63176 | 34900 ft | 526 kts | 162° |
| 2026-04-16 02:58 | -10.43539 | 50.66128 | 34900 ft | 526 kts | 162° |
| 2026-04-16 02:59 | -10.50266 | 50.69098 | 34902 ft | 526 kts | 162° |
| 2026-04-16 02:59 | -10.57001 | 50.72072 | 34909 ft | 527 kts | 162° |
| 2026-04-16 03:00 | -10.63726 | 50.75044 | 34903 ft | 526 kts | 162° |
| 2026-04-16 03:00 | -10.70401 | 50.77996 | 34907 ft | 526 kts | 162° |
| 2026-04-16 03:01 | -10.77132 | 50.80973 | 34905 ft | 526 kts | 162° |
| 2026-04-16 03:01 | -10.83819 | 50.83932 | 34917 ft | 526 kts | 162° |
| 2026-04-16 03:02 | -10.90553 | 50.86914 | 34906 ft | 526 kts | 162° |
| 2026-04-16 03:02 | -10.97271 | 50.89890 | 34906 ft | 526 kts | 162° |
| 2026-04-16 03:03 | -11.03959 | 50.92854 | 34911 ft | 526 kts | 162° |
| 2026-04-16 03:03 | -11.10676 | 50.95833 | 34909 ft | 526 kts | 162° |
| 2026-04-16 03:04 | -11.17353 | 50.98795 | 34918 ft | 526 kts | 162° |
| 2026-04-16 03:04 | -11.24082 | 51.01781 | 34910 ft | 527 kts | 162° |
| 2026-04-16 03:05 | -11.30784 | 51.04758 | 34916 ft | 526 kts | 162° |
| 2026-04-16 03:05 | -11.37516 | 51.07750 | 34915 ft | 527 kts | 162° |
| 2026-04-16 03:06 | -11.44226 | 51.10733 | 34912 ft | 527 kts | 162° |
| 2026-04-16 03:07 | -11.53194 | 51.14722 | 34913 ft | 527 kts | 162° |
| 2026-04-16 03:07 | -11.59925 | 51.17718 | 34916 ft | 527 kts | 162° |
| 2026-04-16 03:08 | -11.66620 | 51.20700 | 34918 ft | 527 kts | 162° |
| 2026-04-16 03:08 | -11.73344 | 51.23696 | 34914 ft | 527 kts | 162° |
| 2026-04-16 03:09 | -11.80048 | 51.26684 | 34922 ft | 527 kts | 161° |
| 2026-04-16 03:09 | -11.83388 | 51.28174 | 35046 ft | 529 kts | 161° |
| 2026-04-16 03:09 | -11.86765 | 51.29680 | 35269 ft | 528 kts | 161° |
| 2026-04-16 03:09 | -11.90126 | 51.31182 | 35541 ft | 526 kts | 161° |
| 2026-04-16 03:10 | -11.93483 | 51.32681 | 35811 ft | 524 kts | 161° |
| 2026-04-16 03:10 | -11.96817 | 51.34170 | 36048 ft | 523 kts | 161° |
| 2026-04-16 03:10 | -12.00163 | 51.35664 | 36215 ft | 523 kts | 161° |
| 2026-04-16 03:10 | -12.03464 | 51.37138 | 36397 ft | 523 kts | 161° |
| 2026-04-16 03:11 | -12.06784 | 51.38622 | 36690 ft | 520 kts | 161° |
| 2026-04-16 03:11 | -12.10098 | 51.40105 | 36954 ft | 516 kts | 161° |
| 2026-04-16 03:11 | -12.13383 | 51.41574 | 36893 ft | 511 kts | 161° |
| 2026-04-16 03:12 | -12.19866 | 51.44469 | 36927 ft | 514 kts | 161° |
| 2026-04-16 03:12 | -12.26469 | 51.47414 | 36930 ft | 519 kts | 161° |
| 2026-04-16 03:13 | -12.33108 | 51.50382 | 36930 ft | 521 kts | 161° |
| 2026-04-16 03:13 | -12.39773 | 51.53366 | 36936 ft | 522 kts | 160° |
| 2026-04-16 03:14 | -12.46404 | 51.56337 | 36922 ft | 521 kts | 160° |
| 2026-04-16 03:14 | -12.53049 | 51.59315 | 36921 ft | 520 kts | 160° |
| 2026-04-16 03:15 | -12.59638 | 51.62269 | 36927 ft | 519 kts | 160° |
| 2026-04-16 03:15 | -12.66264 | 51.65240 | 36925 ft | 519 kts | 160° |
| 2026-04-16 03:16 | -12.72881 | 51.68209 | 36928 ft | 518 kts | 160° |
| 2026-04-16 03:16 | -12.79491 | 51.71178 | 36933 ft | 518 kts | 160° |
| 2026-04-16 03:17 | -12.86059 | 51.74129 | 36923 ft | 517 kts | 159° |
| 2026-04-16 03:17 | -12.92634 | 51.77085 | 36929 ft | 517 kts | 159° |
| 2026-04-16 03:18 | -12.99240 | 51.80056 | 36943 ft | 517 kts | 159° |
| 2026-04-16 03:18 | -13.05817 | 51.83015 | 36934 ft | 517 kts | 159° |
| 2026-04-16 03:19 | -13.12436 | 51.85997 | 36928 ft | 517 kts | 159° |
| 2026-04-16 03:19 | -13.19003 | 51.88956 | 36930 ft | 517 kts | 159° |
| 2026-04-16 03:20 | -13.25602 | 51.91931 | 36933 ft | 518 kts | 159° |
| 2026-04-16 03:20 | -13.32209 | 51.94911 | 36938 ft | 518 kts | 159° |
| 2026-04-16 03:21 | -13.38770 | 51.97873 | 36932 ft | 518 kts | 159° |
| 2026-04-16 03:21 | -13.45367 | 52.00853 | 36928 ft | 518 kts | 159° |
| 2026-04-16 03:22 | -13.51988 | 52.03845 | 36934 ft | 518 kts | 159° |
| 2026-04-16 03:22 | -13.58557 | 52.06816 | 36937 ft | 518 kts | 159° |
| 2026-04-16 03:23 | -13.65135 | 52.09792 | 36942 ft | 518 kts | 158° |
| 2026-04-16 03:23 | -13.71737 | 52.12782 | 36936 ft | 518 kts | 158° |
| 2026-04-16 03:24 | -13.78344 | 52.15775 | 36941 ft | 518 kts | 158° |
| 2026-04-16 03:24 | -13.84911 | 52.18752 | 36939 ft | 518 kts | 158° |
| 2026-04-16 03:25 | -13.91508 | 52.21745 | 36941 ft | 518 kts | 158° |
| 2026-04-16 03:25 | -13.98113 | 52.24742 | 36939 ft | 518 kts | 158° |
| 2026-04-16 03:26 | -14.04678 | 52.27724 | 36940 ft | 517 kts | 158° |
| 2026-04-16 03:26 | -14.11273 | 52.30721 | 36941 ft | 517 kts | 158° |
| 2026-04-16 03:27 | -14.17846 | 52.33711 | 36942 ft | 517 kts | 158° |
| 2026-04-16 03:27 | -14.24453 | 52.36717 | 36951 ft | 517 kts | 158° |
| 2026-04-16 03:28 | -14.31003 | 52.39700 | 36939 ft | 517 kts | 158° |
| 2026-04-16 03:28 | -14.37606 | 52.42709 | 36940 ft | 516 kts | 158° |
| 2026-04-16 03:29 | -14.44136 | 52.45686 | 36940 ft | 516 kts | 158° |
| 2026-04-16 03:29 | -14.50715 | 52.48687 | 36946 ft | 515 kts | 158° |
| 2026-04-16 03:30 | -14.57244 | 52.51668 | 36943 ft | 515 kts | 158° |
| 2026-04-16 03:30 | -14.63808 | 52.54666 | 36944 ft | 515 kts | 158° |
| 2026-04-16 03:31 | -14.70346 | 52.57655 | 36950 ft | 516 kts | 158° |
| 2026-04-16 03:31 | -14.76928 | 52.60665 | 36945 ft | 516 kts | 158° |
| 2026-04-16 03:32 | -14.83511 | 52.63678 | 36952 ft | 516 kts | 158° |
| 2026-04-16 03:34 | -15.09708 | 52.75690 | 36949 ft | 514 kts | 158° |
| 2026-04-16 03:34 | -15.16222 | 52.78681 | 36950 ft | 514 kts | 157° |
| 2026-04-16 03:35 | -15.22764 | 52.81688 | 36953 ft | 514 kts | 157° |
| 2026-04-16 03:35 | -15.29313 | 52.84699 | 36950 ft | 514 kts | 157° |
| 2026-04-16 03:36 | -15.35812 | 52.87690 | 36953 ft | 514 kts | 157° |
| 2026-04-16 03:36 | -15.42354 | 52.90703 | 36950 ft | 514 kts | 157° |
| 2026-04-16 03:37 | -15.48897 | 52.93718 | 36950 ft | 514 kts | 157° |
| 2026-04-16 03:37 | -15.55407 | 52.96720 | 36949 ft | 514 kts | 157° |
| 2026-04-16 03:38 | -15.61927 | 52.99729 | 36950 ft | 514 kts | 157° |
| 2026-04-16 03:38 | -15.68477 | 53.02754 | 36951 ft | 515 kts | 157° |
| 2026-04-16 03:39 | -15.75017 | 53.05776 | 36957 ft | 515 kts | 157° |
| 2026-04-16 03:39 | -15.81577 | 53.08810 | 36961 ft | 515 kts | 157° |
| 2026-04-16 03:40 | -15.88114 | 53.11835 | 36957 ft | 516 kts | 157° |
| 2026-04-16 03:40 | -15.94685 | 53.14878 | 36958 ft | 515 kts | 157° |
| 2026-04-16 03:41 | -16.01199 | 53.17897 | 36951 ft | 515 kts | 157° |
| 2026-04-16 03:41 | -16.07753 | 53.20937 | 36956 ft | 515 kts | 157° |
| 2026-04-16 03:42 | -16.14319 | 53.23984 | 36960 ft | 515 kts | 157° |
| 2026-04-16 03:42 | -16.20823 | 53.27005 | 36956 ft | 514 kts | 156° |
| 2026-04-16 03:43 | -16.27370 | 53.30048 | 36961 ft | 514 kts | 157° |
| 2026-04-16 03:43 | -16.33867 | 53.33070 | 36957 ft | 513 kts | 156° |
| 2026-04-16 03:44 | -16.40400 | 53.36111 | 36959 ft | 513 kts | 157° |
| 2026-04-16 03:44 | -16.46947 | 53.39160 | 36961 ft | 514 kts | 157° |
| 2026-04-16 03:45 | -16.53441 | 53.42188 | 36962 ft | 514 kts | 157° |
| 2026-04-16 03:45 | -16.59983 | 53.45239 | 36960 ft | 514 kts | 156° |
| 2026-04-16 03:46 | -16.66527 | 53.48295 | 36963 ft | 515 kts | 156° |
| 2026-04-16 03:46 | -16.73037 | 53.51336 | 36967 ft | 515 kts | 157° |
| 2026-04-16 03:47 | -16.79581 | 53.54396 | 36965 ft | 515 kts | 157° |
| 2026-04-16 03:47 | -16.86148 | 53.57469 | 36961 ft | 515 kts | 157° |
| 2026-04-16 03:48 | -16.92654 | 53.60515 | 36965 ft | 515 kts | 157° |
| 2026-04-16 03:48 | -16.99214 | 53.63590 | 36962 ft | 515 kts | 157° |
| 2026-04-16 03:49 | -17.05774 | 53.66666 | 36969 ft | 515 kts | 157° |
| 2026-04-16 03:49 | -17.12267 | 53.69714 | 36963 ft | 514 kts | 157° |
| 2026-04-16 03:50 | -17.18811 | 53.72788 | 36967 ft | 513 kts | 157° |
| 2026-04-16 03:50 | -17.25295 | 53.75836 | 36961 ft | 512 kts | 157° |
| 2026-04-16 03:51 | -17.31807 | 53.78899 | 36963 ft | 512 kts | 157° |
| 2026-04-16 03:51 | -17.38283 | 53.81948 | 36968 ft | 512 kts | 157° |
| 2026-04-16 03:52 | -17.43687 | 53.84494 | 36964 ft | 511 kts | 157° |
| 2026-04-16 03:52 | -17.51250 | 53.88060 | 36971 ft | 511 kts | 157° |
| 2026-04-16 03:53 | -17.56640 | 53.90604 | 36963 ft | 511 kts | 157° |
| 2026-04-16 03:53 | -17.63137 | 53.93672 | 36973 ft | 511 kts | 157° |
| 2026-04-16 03:54 | -17.69635 | 53.96743 | 36972 ft | 511 kts | 157° |
| 2026-04-16 03:54 | -17.76084 | 53.99793 | 36977 ft | 511 kts | 157° |
| 2026-04-16 03:55 | -17.82547 | 54.02853 | 36970 ft | 511 kts | 157° |
| 2026-04-16 03:55 | -17.89051 | 54.05933 | 36971 ft | 512 kts | 157° |
| 2026-04-16 03:56 | -17.95550 | 54.09015 | 36978 ft | 512 kts | 157° |
| 2026-04-16 03:56 | -18.02032 | 54.12091 | 36978 ft | 512 kts | 157° |
| 2026-04-16 03:57 | -18.08534 | 54.15178 | 36972 ft | 512 kts | 157° |
| 2026-04-16 03:57 | -18.15044 | 54.18273 | 36974 ft | 512 kts | 157° |
| 2026-04-16 03:58 | -18.21505 | 54.21346 | 36974 ft | 512 kts | 157° |
| 2026-04-16 03:58 | -18.28003 | 54.24440 | 36987 ft | 511 kts | 157° |
| 2026-04-16 03:59 | -18.34506 | 54.27538 | 36976 ft | 511 kts | 157° |
| 2026-04-16 03:59 | -18.40954 | 54.30613 | 36976 ft | 511 kts | 157° |
| 2026-04-16 04:00 | -18.47444 | 54.33711 | 36979 ft | 511 kts | 157° |
| 2026-04-16 04:00 | -18.53942 | 54.36815 | 36979 ft | 512 kts | 157° |
| 2026-04-16 04:01 | -18.60392 | 54.39898 | 36988 ft | 511 kts | 157° |
| 2026-04-16 04:01 | -18.67007 | 54.42722 | 36970 ft | 510 kts | 161° |
| 2026-04-16 04:02 | -18.73572 | 54.45260 | 36971 ft | 510 kts | 161° |
| 2026-04-16 04:02 | -18.80238 | 54.47850 | 36973 ft | 510 kts | 161° |
| 2026-04-16 04:03 | -18.86857 | 54.50477 | 36975 ft | 510 kts | 161° |
| 2026-04-16 04:03 | -18.93500 | 54.53141 | 36979 ft | 510 kts | 161° |
| 2026-04-16 04:04 | -19.00152 | 54.55812 | 36980 ft | 510 kts | 161° |
| 2026-04-16 04:04 | -19.06766 | 54.58466 | 36981 ft | 511 kts | 161° |
| 2026-04-16 04:04 | -19.10127 | 54.59816 | 36784 ft | 511 kts | 161° |
| 2026-04-16 04:05 | -19.13410 | 54.61134 | 36067 ft | 506 kts | 161° |
| 2026-04-16 04:05 | -19.16701 | 54.62457 | 35227 ft | 507 kts | 161° |
| 2026-04-16 04:05 | -19.20017 | 54.63789 | 34370 ft | 509 kts | 161° |
| 2026-04-16 04:05 | -19.23329 | 54.65120 | 33400 ft | 511 kts | 161° |
| 2026-04-16 04:06 | -19.26664 | 54.66461 | 32443 ft | 511 kts | 161° |
| 2026-04-16 04:06 | -19.30006 | 54.67805 | 31493 ft | 512 kts | 161° |
| 2026-04-16 04:06 | -19.33310 | 54.69135 | 30551 ft | 513 kts | 161° |
| 2026-04-16 04:06 | -19.36630 | 54.70473 | 29881 ft | 507 kts | 161° |
| 2026-04-16 04:07 | -19.39914 | 54.71797 | 29121 ft | 502 kts | 161° |
| 2026-04-16 04:07 | -19.46378 | 54.74406 | 27795 ft | 490 kts | 161° |
| 2026-04-16 04:07 | -19.49515 | 54.75672 | 27187 ft | 485 kts | 161° |
| 2026-04-16 04:08 | -19.52659 | 54.76941 | 26571 ft | 481 kts | 161° |
| 2026-04-16 04:08 | -19.55780 | 54.78201 | 25947 ft | 477 kts | 161° |
| 2026-04-16 04:08 | -19.58870 | 54.79448 | 25343 ft | 473 kts | 161° |
| 2026-04-16 04:08 | -19.61945 | 54.80691 | 24716 ft | 470 kts | 161° |
| 2026-04-16 04:09 | -19.65002 | 54.81926 | 24116 ft | 467 kts | 161° |
| 2026-04-16 04:09 | -19.68036 | 54.83153 | 23506 ft | 465 kts | 161° |
| 2026-04-16 04:09 | -19.71028 | 54.84363 | 22806 ft | 462 kts | 161° |
| 2026-04-16 04:09 | -19.74027 | 54.85577 | 22190 ft | 458 kts | 161° |
| 2026-04-16 04:10 | -19.76994 | 54.86778 | 21591 ft | 454 kts | 161° |
| 2026-04-16 04:10 | -19.79930 | 54.87968 | 21006 ft | 450 kts | 161° |
| 2026-04-16 04:10 | -19.82815 | 54.89137 | 20425 ft | 446 kts | 161° |
| 2026-04-16 04:10 | -19.85711 | 54.90311 | 19873 ft | 442 kts | 161° |
| 2026-04-16 04:11 | -19.88594 | 54.91480 | 19280 ft | 440 kts | 161° |
| 2026-04-16 04:11 | -19.91415 | 54.92624 | 18705 ft | 437 kts | 161° |
| 2026-04-16 04:11 | -19.94262 | 54.93779 | 18104 ft | 435 kts | 161° |
| 2026-04-16 04:11 | -19.97067 | 54.94918 | 17463 ft | 427 kts | 161° |
| 2026-04-16 04:12 | -19.99799 | 54.96029 | 16919 ft | 423 kts | 161° |
| 2026-04-16 04:12 | -20.02546 | 54.97146 | 16358 ft | 419 kts | 161° |
| 2026-04-16 04:12 | -20.05260 | 54.98249 | 15808 ft | 416 kts | 161° |
| 2026-04-16 04:12 | -20.07966 | 54.99349 | 15263 ft | 412 kts | 161° |
| 2026-04-16 04:13 | -20.10637 | 55.00436 | 14734 ft | 409 kts | 161° |
| 2026-04-16 04:13 | -20.13266 | 55.01506 | 14194 ft | 407 kts | 162° |
| 2026-04-16 04:13 | -20.15916 | 55.02585 | 13619 ft | 405 kts | 162° |
| 2026-04-16 04:13 | -20.18534 | 55.03651 | 13077 ft | 394 kts | 161° |
| 2026-04-16 04:14 | -20.21078 | 55.04688 | 12503 ft | 388 kts | 161° |
| 2026-04-16 04:14 | -20.23592 | 55.05712 | 11975 ft | 385 kts | 161° |
| 2026-04-16 04:14 | -20.26028 | 55.06706 | 11448 ft | 373 kts | 161° |
| 2026-04-16 04:14 | -20.28442 | 55.07691 | 11058 ft | 363 kts | 161° |
| 2026-04-16 04:15 | -20.30720 | 55.08622 | 10903 ft | 339 kts | 161° |
| 2026-04-16 04:15 | -20.32853 | 55.09495 | 10756 ft | 317 kts | 161° |
| 2026-04-16 04:15 | -20.34854 | 55.10314 | 10606 ft | 298 kts | 161° |
| 2026-04-16 04:15 | -20.36756 | 55.11090 | 10502 ft | 287 kts | 162° |
| 2026-04-16 04:16 | -20.38568 | 55.11830 | 10386 ft | 278 kts | 162° |
| 2026-04-16 04:16 | -20.40347 | 55.12555 | 10274 ft | 269 kts | 162° |
| 2026-04-16 04:16 | -20.42096 | 55.13269 | 10010 ft | 272 kts | 163° |
| 2026-04-16 04:16 | -20.43886 | 55.13997 | 9688 ft | 276 kts | 162° |
| 2026-04-16 04:17 | -20.45671 | 55.14723 | 9339 ft | 279 kts | 162° |
| 2026-04-16 04:17 | -20.47488 | 55.15465 | 8990 ft | 279 kts | 162° |
| 2026-04-16 04:17 | -20.49297 | 55.16204 | 8648 ft | 279 kts | 161° |
| 2026-04-16 04:17 | -20.51111 | 55.16946 | 8291 ft | 278 kts | 161° |
| 2026-04-16 04:18 | -20.52919 | 55.17686 | 7941 ft | 278 kts | 161° |
| 2026-04-16 04:18 | -20.54730 | 55.18427 | 7604 ft | 278 kts | 161° |
| 2026-04-16 04:18 | -20.56508 | 55.19155 | 7278 ft | 277 kts | 160° |
| 2026-04-16 04:18 | -20.58318 | 55.19896 | 6938 ft | 277 kts | 160° |
| 2026-04-16 04:19 | -20.60133 | 55.20640 | 6627 ft | 277 kts | 160° |
| 2026-04-16 04:19 | -20.61936 | 55.21379 | 6295 ft | 277 kts | 160° |
| 2026-04-16 04:19 | -20.63719 | 55.22110 | 5947 ft | 277 kts | 160° |
| 2026-04-16 04:19 | -20.65510 | 55.22845 | 5595 ft | 271 kts | 160° |
| 2026-04-16 04:20 | -20.67262 | 55.23564 | 5346 ft | 267 kts | 160° |
| 2026-04-16 04:20 | -20.68989 | 55.24273 | 5094 ft | 264 kts | 159° |
| 2026-04-16 04:20 | -20.70697 | 55.24973 | 4852 ft | 261 kts | 159° |
| 2026-04-16 04:20 | -20.72364 | 55.25657 | 4607 ft | 259 kts | 159° |
| 2026-04-16 04:21 | -20.74036 | 55.26344 | 4399 ft | 254 kts | 159° |
| 2026-04-16 04:21 | -20.75667 | 55.27013 | 4199 ft | 248 kts | 159° |
| 2026-04-16 04:21 | -20.77250 | 55.27699 | 3998 ft | 239 kts | 150° |
| 2026-04-16 04:21 | -20.78382 | 55.28914 | 3768 ft | 228 kts | 116° |
| 2026-04-16 04:22 | -20.79067 | 55.30424 | 3648 ft | 231 kts | 117° |
| 2026-04-16 04:22 | -20.79797 | 55.31934 | 3551 ft | 223 kts | 117° |
| 2026-04-16 04:22 | -20.80491 | 55.33398 | 3362 ft | 216 kts | 116° |
| 2026-04-16 04:22 | -20.81158 | 55.34827 | 3105 ft | 212 kts | 116° |
| 2026-04-16 04:23 | -20.81803 | 55.36214 | 2848 ft | 205 kts | 116° |
| 2026-04-16 04:23 | -20.82423 | 55.37545 | 2587 ft | 197 kts | 116° |
| 2026-04-16 04:23 | -20.83011 | 55.38807 | 2339 ft | 180 kts | 116° |
| 2026-04-16 04:23 | -20.83548 | 55.39958 | 2085 ft | 167 kts | 116° |
| 2026-04-16 04:24 | -20.84067 | 55.41073 | 1897 ft | 165 kts | 116° |
| 2026-04-16 04:24 | -20.84569 | 55.42149 | 1686 ft | 159 kts | 116° |
| 2026-04-16 04:24 | -20.85062 | 55.43209 | 1515 ft | 160 kts | 116° |
| 2026-04-16 04:24 | -20.85561 | 55.44269 | 1306 ft | 163 kts | 117° |
| 2026-04-16 04:25 | -20.86069 | 55.45354 | 1092 ft | 162 kts | 116° |
| 2026-04-16 04:25 | -20.86563 | 55.46418 | 805 ft | 156 kts | 116° |
| 2026-04-16 04:25 | -20.87027 | 55.47429 | 564 ft | 148 kts | 116° |
| 2026-04-16 04:25 | -20.87481 | 55.48411 | 399 ft | 146 kts | 118° |
| 2026-04-16 04:26 | -20.87936 | 55.49376 | 246 ft | 147 kts | 118° |
| 2026-04-16 04:26 | -20.88381 | 55.50329 | 91 ft | 146 kts | 117° |
| 2026-04-16 04:26 | -20.88809 | 55.51244 | 59 ft | 124 kts | 116° |
| 2026-04-16 04:26 | -20.89121 | 55.51908 | 62 ft | 51 kts | 116° |
| 2026-04-16 04:27 | -20.89224 | 55.52131 | 65 ft | 29 kts | 116° |
| 2026-04-16 04:27 | -20.89263 | 55.52208 | 66 ft | 7 kts | 129° |
| 2026-04-16 04:27 | -20.89310 | 55.52221 | 69 ft | 7 kts | 192° |
| 2026-04-16 04:27 | -20.89356 | 55.52198 | 89 ft | 7 kts | 207° |
| 2026-04-16 04:28 | -20.89399 | 55.52173 | 95 ft | 4 kts | 214° |
| 2026-04-16 04:28 | -20.89408 | 55.52142 | 94 ft | 5 kts | 278° |
| 2026-04-16 04:28 | -20.89395 | 55.52106 | 95 ft | 6 kts | 295° |
| 2026-04-16 04:28 | -20.89367 | 55.52045 | 92 ft | 10 kts | 296° |
| 2026-04-16 04:29 | -20.89335 | 55.51975 | 94 ft | 11 kts | 296° |
| 2026-04-16 04:29 | -20.89301 | 55.51902 | 93 ft | 11 kts | 297° |
| 2026-04-16 04:29 | -20.89265 | 55.51827 | 91 ft | 12 kts | 297° |
| 2026-04-16 04:29 | -20.89227 | 55.51746 | 92 ft | 12 kts | 296° |
| 2026-04-16 04:30 | -20.89188 | 55.51661 | 88 ft | 13 kts | 296° |
| 2026-04-16 04:30 | -20.89147 | 55.51574 | 88 ft | 13 kts | 296° |
| 2026-04-16 04:30 | -20.89100 | 55.51473 | 82 ft | 18 kts | 297° |
| 2026-04-16 04:30 | -20.89046 | 55.51359 | 84 ft | 15 kts | 297° |
| 2026-04-16 04:31 | -20.89014 | 55.51282 | 84 ft | 5 kts | 273° |
| 2026-04-16 04:31 | -20.89036 | 55.51254 | 84 ft | 3 kts | 213° |
| 2026-04-16 04:31 | -20.89059 | 55.51242 | 84 ft | 4 kts | 205° |
| 2026-04-16 04:31 | -20.89073 | 55.51235 | 84 ft | 1 kts | 206° |
| 2026-04-16 04:32 | -20.89075 | 55.51233 | 84 ft | 0 kts | 206° |